createdAt,value
2022-08-25T00:02:24.721Z,4.50
2022-08-25T00:07:22.985Z,4.20
2022-08-25T00:12:20.455Z,4.03
2022-08-25T00:17:16.714Z,3.80
2022-08-25T00:22:12.972Z,4.30
2022-08-25T00:27:11.366Z,5.10
2022-08-25T00:32:07.663Z,3.72
2022-08-25T00:37:07.444Z,4.13
2022-08-25T00:42:04.162Z,3.72
2022-08-25T00:47:03.924Z,4.20
2022-08-25T00:52:02.207Z,3.15
2022-08-25T00:56:59.907Z,4.43
2022-08-25T01:01:56.954Z,4.22
2022-08-25T01:06:53.455Z,3.80
2022-08-25T01:11:49.852Z,3.80
2022-08-25T01:16:46.304Z,3.72
2022-08-25T01:21:51.698Z,3.53
2022-08-25T01:26:47.984Z,3.50
2022-08-25T01:31:45.038Z,4.07
2022-08-25T01:36:42.320Z,3.75
2022-08-25T01:41:44.408Z,3.78
2022-08-25T01:46:40.959Z,4.65
2022-08-25T01:51:43.822Z,3.95
2022-08-25T01:56:40.086Z,3.72
2022-08-25T02:01:36.486Z,3.80
2022-08-25T02:06:34.870Z,3.50
2022-08-25T02:11:32.334Z,3.95
2022-08-25T02:16:30.538Z,3.35
2022-08-25T02:21:26.988Z,4.03
2022-08-25T02:26:23.319Z,4.55
2022-08-25T02:31:20.794Z,3.92
2022-08-25T02:36:17.112Z,3.70
2022-08-25T02:41:14.815Z,3.88
2022-08-25T02:46:11.765Z,4.00
2022-08-25T02:51:09.145Z,3.90
2022-08-25T02:56:07.175Z,3.78
2022-08-25T03:01:03.747Z,3.88
2022-08-25T03:06:01.619Z,3.60
2022-08-25T03:10:57.966Z,4.10
2022-08-25T03:15:54.359Z,3.25
2022-08-25T03:20:50.722Z,3.50
2022-08-25T03:26:05.724Z,4.50
2022-08-25T03:31:01.976Z,3.90
2022-08-25T03:35:59.248Z,4.22
2022-08-25T03:40:55.512Z,4.28
2022-08-25T03:45:51.851Z,4.40
2022-08-25T03:50:50.711Z,3.67
2022-08-25T03:55:48.474Z,3.97
2022-08-25T04:00:44.842Z,4.55
2022-08-25T04:05:41.183Z,4.10
2022-08-25T04:10:37.511Z,4.63
2022-08-25T04:15:35.529Z,5.05
2022-08-25T04:20:31.824Z,4.07
2022-08-25T04:25:28.139Z,4.35
2022-08-25T04:30:24.552Z,4.15
2022-08-25T04:35:22.537Z,3.85
2022-08-25T04:40:18.985Z,4.57
2022-08-25T04:45:20.339Z,4.63
2022-08-25T04:50:16.726Z,5.90
2022-08-25T04:55:13.008Z,5.07
2022-08-25T05:00:09.588Z,4.00
2022-08-25T05:05:06.936Z,4.22
2022-08-25T05:10:03.668Z,5.30
2022-08-25T05:15:19.874Z,5.22
2022-08-25T05:20:16.198Z,5.05
2022-08-25T05:25:12.615Z,4.70
2022-08-25T05:30:10.853Z,5.80
2022-08-25T05:35:07.573Z,6.15
2022-08-25T05:40:05.576Z,8.73
2022-08-25T05:45:01.939Z,7.40
2022-08-25T05:49:58.294Z,7.80
2022-08-25T05:54:55.421Z,8.40
2022-08-25T05:59:51.843Z,8.57
2022-08-25T06:04:48.105Z,7.63
2022-08-25T06:09:46.344Z,8.77
2022-08-25T06:14:42.697Z,9.18
2022-08-25T06:19:41.267Z,9.63
2022-08-25T06:24:37.734Z,7.97
2022-08-25T06:29:34.423Z,9.50
2022-08-25T06:34:30.695Z,9.13
2022-08-25T06:39:26.999Z,11.23
2022-08-25T06:44:24.131Z,9.90
2022-08-25T06:49:20.746Z,9.05
2022-08-25T06:54:17.070Z,9.38
2022-08-25T06:59:13.703Z,10.30
2022-08-25T07:04:13.204Z,9.07
2022-08-25T07:09:10.282Z,9.60
2022-08-25T07:14:08.228Z,9.70
2022-08-25T07:19:05.003Z,10.20
2022-08-25T07:24:03.292Z,10.85
2022-08-25T07:28:59.927Z,9.73
2022-08-25T07:34:16.389Z,9.07
2022-08-25T07:39:12.922Z,8.23
2022-08-25T07:44:10.468Z,11.02
2022-08-25T07:49:09.225Z,10.35
2022-08-25T07:54:13.305Z,8.20
2022-08-25T07:59:10.398Z,9.55
2022-08-25T08:04:08.987Z,8.73
2022-08-25T08:09:05.653Z,7.47
2022-08-25T08:14:02.146Z,9.40
2022-08-25T08:18:59.094Z,8.32
2022-08-25T08:23:58.877Z,7.63
2022-08-25T08:28:55.449Z,7.72
2022-08-25T08:33:53.766Z,8.70
2022-08-25T08:38:50.096Z,8.20
2022-08-25T08:43:47.428Z,7.97
2022-08-25T08:48:48.714Z,8.48
2022-08-25T08:53:48.670Z,7.20
2022-08-25T08:58:50.120Z,8.15
2022-08-25T09:03:55.168Z,8.90
2022-08-25T09:08:55.497Z,9.63
2022-08-25T09:14:04.440Z,9.75
2022-08-25T09:19:41.999Z,7.85
2022-08-25T09:24:41.553Z,7.55
2022-08-25T09:29:46.882Z,8.50
2022-08-25T09:34:43.652Z,9.38
2022-08-25T09:39:39.982Z,9.98
2022-08-25T09:44:41.327Z,10.32
2022-08-25T09:49:42.603Z,10.13
2022-08-25T09:54:43.981Z,10.13
2022-08-25T09:59:41.306Z,10.63
2022-08-25T10:09:54.561Z,8.35
2022-08-25T10:14:51.400Z,9.73
2022-08-25T10:20:15.093Z,9.52
2022-08-25T10:25:12.603Z,9.52
2022-08-25T10:30:15.831Z,9.90
2022-08-25T10:35:15.052Z,8.48
2022-08-25T10:40:22.393Z,8.02
2022-08-25T10:45:41.772Z,8.50
2022-08-25T10:50:45.515Z,8.57
2022-08-25T10:56:04.512Z,8.98
2022-08-25T11:01:13.462Z,7.93
2022-08-25T11:06:15.256Z,8.57
2022-08-25T11:11:24.254Z,8.85
2022-08-25T11:16:25.661Z,8.23
2022-08-25T11:21:31.583Z,8.05
2022-08-25T11:26:36.846Z,7.38
2022-08-25T11:31:38.448Z,8.10
2022-08-25T11:36:36.065Z,7.82
2022-08-25T11:41:51.097Z,8.20
2022-08-25T11:47:00.586Z,7.32
2022-08-25T11:52:02.913Z,7.93
2022-08-25T11:57:07.277Z,7.18
2022-08-25T12:02:03.611Z,8.32
2022-08-25T12:07:10.466Z,7.28
2022-08-25T12:12:26.835Z,8.73
2022-08-25T12:17:24.944Z,8.13
2022-08-25T12:22:24.283Z,8.10
2022-08-25T12:27:34.047Z,7.63
2022-08-25T12:33:08.894Z,7.53
2022-08-25T12:38:05.403Z,8.07
2022-08-25T12:43:03.179Z,8.57
2022-08-25T12:48:19.391Z,8.38
2022-08-25T12:53:19.966Z,7.65
2022-08-25T12:58:18.003Z,7.50
2022-08-25T13:03:33.048Z,7.55
2022-08-25T13:08:33.679Z,8.68
2022-08-25T13:13:39.561Z,8.60
2022-08-25T13:18:37.313Z,7.93
2022-08-25T13:23:38.183Z,6.65
2022-08-25T13:28:40.666Z,7.53
2022-08-25T13:33:38.380Z,7.57
2022-08-25T13:38:35.723Z,7.68
2022-08-25T13:43:32.531Z,7.65
2022-08-25T13:48:39.880Z,7.60
2022-08-25T13:53:54.653Z,7.90
2022-08-25T13:58:51.351Z,7.85
2022-08-25T14:03:47.703Z,7.53
2022-08-25T14:08:47.871Z,7.35
2022-08-25T14:13:59.620Z,7.28
2022-08-25T14:18:58.640Z,7.35
2022-08-25T14:23:56.198Z,7.32
2022-08-25T14:28:52.758Z,7.70
2022-08-25T14:33:54.014Z,7.53
2022-08-25T14:38:54.850Z,7.20
2022-08-25T14:43:51.648Z,7.28
2022-08-25T14:48:55.360Z,7.03
2022-08-25T14:53:56.575Z,8.18
2022-08-25T14:58:54.318Z,7.82
2022-08-25T15:03:52.384Z,7.20
2022-08-25T15:09:07.666Z,7.68
2022-08-25T15:14:05.153Z,7.63
2022-08-25T15:19:01.922Z,8.20
2022-08-25T15:24:03.975Z,7.20
2022-08-25T15:29:01.796Z,7.70
2022-08-25T15:33:59.387Z,6.97
2022-08-25T15:38:55.952Z,8.48
2022-08-25T15:43:52.579Z,7.55
2022-08-25T15:48:49.647Z,7.20
2022-08-25T15:53:46.464Z,7.18
2022-08-25T15:58:49.786Z,7.47
2022-08-25T16:03:46.422Z,7.82
2022-08-25T16:08:43.146Z,7.35
2022-08-25T16:13:39.480Z,7.30
2022-08-25T16:18:38.463Z,7.38
2022-08-25T16:23:34.983Z,7.32
2022-08-25T16:28:31.275Z,7.43
2022-08-25T16:33:27.717Z,7.95
2022-08-25T16:38:24.015Z,7.20
2022-08-25T16:43:22.063Z,7.68
2022-08-25T16:48:18.530Z,7.63
2022-08-25T16:53:33.466Z,7.78
2022-08-25T16:58:32.870Z,7.25
2022-08-25T17:03:33.644Z,7.28
2022-08-25T17:08:31.151Z,7.20
2022-08-25T17:13:27.696Z,7.30
2022-08-25T17:18:28.595Z,7.68
2022-08-25T17:23:25.679Z,7.13
2022-08-25T17:28:22.243Z,7.50
2022-08-25T17:33:21.163Z,7.90
2022-08-25T17:38:25.735Z,7.22
2022-08-25T17:43:22.489Z,7.45
2022-08-25T17:48:19.245Z,8.13
2022-08-25T17:53:15.601Z,7.70
2022-08-25T17:58:13.824Z,7.43
2022-08-25T18:03:10.198Z,7.15
2022-08-25T18:08:10.661Z,7.13
2022-08-25T18:13:07.522Z,8.15
2022-08-25T18:18:04.533Z,7.32
2022-08-25T18:23:01.658Z,6.47
2022-08-25T18:27:58.008Z,6.82
2022-08-25T18:32:54.575Z,6.65
2022-08-25T18:38:09.441Z,7.03
2022-08-25T18:43:07.241Z,6.78
2022-08-25T18:48:03.965Z,7.70
2022-08-25T18:53:03.763Z,8.20
2022-08-25T18:58:03.012Z,6.90
2022-08-25T19:02:59.810Z,6.75
2022-08-25T19:07:56.154Z,6.45
2022-08-25T19:12:54.916Z,6.65
2022-08-25T19:17:53.940Z,7.13
2022-08-25T19:22:50.824Z,6.80
2022-08-25T19:27:48.501Z,7.32
2022-08-25T19:32:46.169Z,6.10
2022-08-25T19:37:42.908Z,6.88
2022-08-25T19:42:39.605Z,6.05
2022-08-25T19:47:37.724Z,6.20
2022-08-25T19:52:34.436Z,5.95
2022-08-25T19:57:43.079Z,6.03
2022-08-25T20:02:40.076Z,5.65
2022-08-25T20:07:36.998Z,5.32
2022-08-25T20:12:35.387Z,5.70
2022-08-25T20:17:31.671Z,5.88
2022-08-25T20:22:30.385Z,5.18
2022-08-25T20:27:40.890Z,5.85
2022-08-25T20:32:37.320Z,6.00
2022-08-25T20:37:34.035Z,5.95
2022-08-25T20:42:30.354Z,6.68
2022-08-25T20:47:27.340Z,5.72
2022-08-25T20:52:23.602Z,5.65
2022-08-25T20:57:25.817Z,5.75
2022-08-25T21:02:23.846Z,5.38
2022-08-25T21:07:21.390Z,5.28
2022-08-25T21:12:20.350Z,5.70
2022-08-25T21:17:19.187Z,5.38
2022-08-25T21:22:16.039Z,6.13
2022-08-25T21:27:12.414Z,5.63
2022-08-25T21:32:09.114Z,6.00
2022-08-25T21:37:07.104Z,5.70
2022-08-25T21:42:04.380Z,6.90
2022-08-25T21:47:01.246Z,5.88
2022-08-25T21:52:02.449Z,5.82
2022-08-25T21:57:02.484Z,5.82
2022-08-25T22:01:59.935Z,5.80
2022-08-25T22:06:58.026Z,5.80
2022-08-25T22:11:55.563Z,5.78
2022-08-25T22:16:52.051Z,7.95
2022-08-25T22:21:48.439Z,6.00
2022-08-25T22:26:47.495Z,7.50
2022-08-25T22:31:44.860Z,6.13
2022-08-25T22:36:41.706Z,6.53
2022-08-25T22:41:38.008Z,5.93
2022-08-25T22:46:38.828Z,5.75
2022-08-25T22:51:35.116Z,6.13
2022-08-25T22:56:32.828Z,5.22
2022-08-25T23:01:29.299Z,5.55
2022-08-25T23:06:26.235Z,6.40
2022-08-25T23:11:23.630Z,5.78
2022-08-25T23:16:19.927Z,6.75
2022-08-25T23:21:37.864Z,6.05
2022-08-25T23:26:37.936Z,5.80
2022-08-25T23:31:39.240Z,5.53
2022-08-25T23:36:36.774Z,6.28
2022-08-25T23:41:33.527Z,5.75
2022-08-25T23:46:29.897Z,5.40
2022-08-25T23:51:30.406Z,5.45
2022-08-25T23:56:26.651Z,5.75
